Time;durP1;ratioP1;P1;durP2;ratioP2;P2;SDS_P1;SDS_P2;PMS_P1;PMS_P2;Temp;Humidity;BMP_temperature;BMP_pressure;BME280_temperature;BME280_humidity;BME280_pressure;Samples;Min_cycle;Max_cycle;Signal;HPM_P1;HPM_P2
2022/12/23 00:04:19;;;;;;;10.73;3.27;;;12.60;99.90;;;;;;10531512;28;20810;-25
2022/12/23 00:09:21;;;;;;;31.85;5.32;;;14.60;98.70;;;;;;10532366;28;20147;-26
2022/12/23 00:19:44;;;;;;;14.77;2.97;;;12.80;99.90;;;;;;10527147;28;20485;-25
2022/12/23 00:24:46;;;;;;;30.15;5.07;;;13.20;99.90;;;;;;10532679;28;20135;-25
2022/12/23 00:29:48;;;;;;;23.60;3.57;;;12.50;99.90;;;;;;10530822;28;20104;-25
2022/12/23 00:34:51;;;;;;;9.18;2.13;;;13.20;99.90;;;;;;10531942;28;20123;-24
2022/12/23 00:45:21;;;;;;;14.35;3.95;;;13.00;99.90;;;;;;10511545;28;20036;-24
2022/12/23 00:50:24;;;;;;;28.13;4.80;;;13.50;99.90;;;;;;10523028;28;20190;-25
2022/12/23 00:55:26;;;;;;;9.30;2.05;;;12.20;99.90;;;;;;10535217;28;20143;-26
2022/12/23 01:05:44;;;;;;;5.97;2.13;;;14.30;99.90;;;;;;10512157;28;20139;-25
2022/12/23 01:10:46;;;;;;;4.65;1.83;;;15.00;94.60;;;;;;10530495;28;20079;-27
2022/12/23 01:15:48;;;;;;;7.22;1.85;;;15.70;91.20;;;;;;10531387;28;20125;-22
2022/12/23 01:20:51;;;;;;;5.33;1.80;;;16.10;87.80;;;;;;10538087;28;20110;-25
2022/12/23 01:25:58;;;;;;;6.78;1.73;;;15.70;91.10;;;;;;10516053;28;20086;-25
2022/12/23 01:31:01;;;;;;;11.13;2.83;;;16.10;87.60;;;;;;10511974;28;20052;-26
2022/12/23 01:36:06;;;;;;;5.65;1.88;;;14.70;95.00;;;;;;10509674;28;20076;-25
2022/12/23 01:42:42;;;;;;;7.18;1.90;;;15.60;91.30;;;;;;10504574;28;20056;-26
2022/12/23 01:46:30;;;;;;;4.72;1.20;;;16.10;86.60;;;;;;10499955;28;20114;-26
2022/12/23 01:51:33;;;;;;;4.37;1.30;;;15.40;92.20;;;;;;10504376;28;20064;-25
2022/12/23 01:56:37;;;;;;;5.38;2.33;;;16.10;87.80;;;;;;10503910;28;20192;-26
2022/12/23 02:12:43;;;;;;;4.72;1.50;;;15.90;89.50;;;;;;10522338;28;20056;-27
2022/12/23 02:18:01;;;;;;;5.85;1.38;;;15.70;90.30;;;;;;10511289;28;20106;-25
2022/12/23 02:23:39;;;;;;;3.53;1.25;;;16.60;82.40;;;;;;10527412;28;20056;-25
2022/12/23 02:29:07;;;;;;;7.28;1.55;;;16.60;82.10;;;;;;10525664;28;20052;-25
2022/12/23 02:34:17;;;;;;;5.13;1.88;;;16.40;84.80;;;;;;10512815;28;20105;-26
2022/12/23 02:39:26;;;;;;;2.72;1.08;;;13.70;98.70;;;;;;10528187;28;20078;-25
2022/12/23 02:44:32;;;;;;;7.40;1.98;;;14.90;95.20;;;;;;10526155;28;20125;-24
2022/12/23 02:49:38;;;;;;;2.53;1.30;;;15.60;91.20;;;;;;10516031;28;20083;-25
2022/12/23 02:54:45;;;;;;;2.97;1.40;;;16.70;81.40;;;;;;10530058;28;20044;-26
2022/12/23 02:59:51;;;;;;;4.38;1.40;;;16.50;81.80;;;;;;10510379;28;20076;-25
2022/12/23 03:04:54;;;;;;;4.18;1.17;;;16.70;80.30;;;;;;10551074;27;20533;-26
2022/12/23 03:10:03;;;;;;;4.38;1.67;;;16.70;81.60;;;;;;10558289;28;20052;-25
2022/12/23 03:15:18;;;;;;;4.78;1.10;;;16.30;85.10;;;;;;10554569;28;20048;-25
2022/12/23 03:20:26;;;;;;;3.92;1.27;;;16.20;86.90;;;;;;10553799;28;20082;-25
2022/12/23 03:25:34;;;;;;;7.72;2.35;;;14.90;94.60;;;;;;10546607;28;20075;-26
2022/12/23 03:30:39;;;;;;;4.38;1.38;;;14.60;95.20;;;;;;10569382;27;20078;-25
2022/12/23 03:35:47;;;;;;;4.25;1.60;;;15.60;91.30;;;;;;10569342;27;20460;-25
2022/12/23 03:40:54;;;;;;;1.98;1.15;;;15.50;92.40;;;;;;10564092;28;20097;-24
2022/12/23 03:45:59;;;;;;;2.65;1.27;;;16.60;82.30;;;;;;10562493;27;20068;-26
2022/12/23 03:51:09;;;;;;;4.93;2.88;;;14.20;97.90;;;;;;10567096;27;20136;-25
2022/12/23 03:56:16;;;;;;;4.45;2.17;;;13.90;99.00;;;;;;10566177;27;20444;-26
2022/12/23 04:01:25;;;;;;;4.47;1.40;;;14.50;95.70;;;;;;10569538;27;20069;-22
2022/12/23 04:06:33;;;;;;;6.72;2.97;;;16.00;90.30;;;;;;10555351;27;20453;-24
2022/12/23 04:11:36;;;;;;;2.03;1.15;;;13.70;99.90;;;;;;10564576;27;20054;-26
2022/12/23 04:16:38;;;;;;;3.92;1.30;;;15.70;90.90;;;;;;10568920;27;20047;-26
2022/12/23 04:21:41;;;;;;;5.27;1.90;;;16.50;84.30;;;;;;10565024;27;20092;-24
2022/12/23 04:26:43;;;;;;;5.40;2.72;;;16.50;82.60;;;;;;10558629;28;20085;-25
2022/12/23 04:31:45;;;;;;;4.07;1.80;;;15.40;91.00;;;;;;10556512;28;20052;-25
2022/12/23 04:36:48;;;;;;;1.43;0.90;;;15.70;90.20;;;;;;10566717;27;20565;-27
2022/12/23 04:41:50;;;;;;;4.43;2.17;;;16.40;84.80;;;;;;10549290;28;20140;-24
2022/12/23 04:46:52;;;;;;;3.43;1.10;;;15.80;88.50;;;;;;10555690;27;20043;-25
2022/12/23 04:51:56;;;;;;;2.45;2.25;;;15.50;91.90;;;;;;10572396;27;20048;-25
2022/12/23 04:56:58;;;;;;;0.85;0.80;;;15.60;90.50;;;;;;10562665;27;20097;-25
2022/12/23 05:02:00;;;;;;;;;;;16.60;82.70;;;;;;10554465;27;20408;-31
2022/12/23 05:07:03;;;;;;;2.17;0.90;;;16.10;84.80;;;;;;10559066;27;20377;-25
2022/12/23 05:12:05;;;;;;;1.33;1.00;;;15.50;91.10;;;;;;10554483;28;20044;-26
2022/12/23 05:17:07;;;;;;;1.50;1.00;;;15.30;92.10;;;;;;10562390;28;20120;-24
2022/12/23 05:22:10;;;;;;;6.10;3.33;;;15.90;89.90;;;;;;10571000;27;20126;-25
2022/12/23 05:27:12;;;;;;;1.10;0.80;;;14.70;92.70;;;;;;10578432;27;20059;-25
2022/12/23 05:32:14;;;;;;;2.33;0.87;;;15.60;91.60;;;;;;10551215;27;20074;-25
2022/12/23 05:37:18;;;;;;;1.00;0.73;;;16.10;86.80;;;;;;10561845;27;20093;-28
2022/12/23 05:42:19;;;;;;;1.20;0.75;;;16.80;80.30;;;;;;10559663;28;20043;-26
2022/12/23 05:47:21;;;;;;;0.80;0.60;;;16.80;78.90;;;;;;10559406;27;20202;-25
2022/12/23 05:52:24;;;;;;;1.07;0.57;;;17.10;76.80;;;;;;10559365;27;20194;-23
2022/12/23 05:57:26;;;;;;;1.27;0.63;;;17.30;74.90;;;;;;10562841;27;20036;-25
2022/12/23 06:02:28;;;;;;;1.25;0.70;;;17.40;74.00;;;;;;10561526;27;20044;-25
2022/12/23 06:07:31;;;;;;;0.57;0.50;;;17.50;73.40;;;;;;10556772;27;20101;-25
2022/12/23 06:12:33;;;;;;;2.55;0.55;;;17.50;73.90;;;;;;10569066;27;20112;-25
2022/12/23 06:17:35;;;;;;;0.73;0.70;;;17.50;73.70;;;;;;10559030;27;20136;-24
2022/12/23 06:22:38;;;;;;;1.05;0.50;;;17.60;73.60;;;;;;10546799;28;20067;-25
2022/12/23 06:27:40;;;;;;;1.58;0.55;;;17.60;73.20;;;;;;10537279;28;20039;-25
2022/12/23 06:32:42;;;;;;;0.95;0.50;;;17.70;72.80;;;;;;10546869;27;20488;-26
2022/12/23 06:37:45;;;;;;;0.77;0.40;;;17.70;73.00;;;;;;10546178;27;20060;-29
2022/12/23 06:42:47;;;;;;;0.65;0.50;;;17.80;72.80;;;;;;10550691;27;20120;-28
2022/12/23 06:47:49;;;;;;;0.40;0.40;;;17.80;72.90;;;;;;10548054;27;20429;-28
2022/12/23 06:52:52;;;;;;;0.97;0.50;;;17.80;72.80;;;;;;10550083;28;20151;-25
2022/12/23 06:57:54;;;;;;;0.73;0.60;;;17.80;72.50;;;;;;10544130;28;20505;-25
2022/12/23 07:15:29;;;;;;;1.05;0.70;;;17.80;72.80;;;;;;10533472;27;20117;-28
2022/12/23 07:20:32;;;;;;;1.83;0.60;;;17.80;73.20;;;;;;10524829;28;20413;-25
2022/12/23 07:25:34;;;;;;;0.73;0.65;;;17.90;72.80;;;;;;10520114;28;20059;-25
2022/12/23 07:30:37;;;;;;;0.93;0.77;;;17.90;72.80;;;;;;10530262;28;20461;-26
2022/12/23 07:35:41;;;;;;;2.22;0.80;;;17.90;72.70;;;;;;10512196;28;20079;-28
2022/12/23 07:40:42;;;;;;;1.23;0.80;;;17.90;72.50;;;;;;10492741;28;20474;-25
2022/12/23 07:45:45;;;;;;;0.82;0.73;;;18.00;72.40;;;;;;10498813;28;20052;-26
2022/12/23 07:50:47;;;;;;;1.73;0.60;;;18.10;72.00;;;;;;10517836;28;20087;-25
2022/12/23 07:55:52;;;;;;;0.95;0.60;;;18.10;71.60;;;;;;10501270;28;20832;-30
2022/12/23 08:01:01;;;;;;;2.25;0.65;;;18.10;71.90;;;;;;10511880;28;20087;-25
2022/12/23 08:06:04;;;;;;;1.77;0.70;;;18.10;72.10;;;;;;10505058;28;20040;-26
2022/12/23 08:11:09;;;;;;;1.25;0.85;;;18.10;72.20;;;;;;10511694;28;20056;-26
2022/12/23 08:16:12;;;;;;;1.33;0.90;;;18.10;71.90;;;;;;10507342;28;20087;-26
2022/12/23 08:21:17;;;;;;;2.65;1.95;;;17.90;72.80;;;;;;10507441;28;20044;-25
2022/12/23 08:26:22;;;;;;;4.30;2.60;;;17.90;73.20;;;;;;10497585;28;20060;-26
2022/12/23 08:31:26;;;;;;;3.88;2.63;;;17.90;72.30;;;;;;10490196;28;20083;-29
2022/12/23 08:36:30;;;;;;;4.55;2.80;;;17.90;72.40;;;;;;10490857;28;20041;-27
2022/12/23 08:41:33;;;;;;;4.22;2.17;;;17.90;72.00;;;;;;10506205;28;20051;-25
2022/12/23 08:46:37;;;;;;;6.18;3.38;;;17.70;72.50;;;;;;10504073;28;20994;-26
2022/12/23 08:51:39;;;;;;;5.30;3.22;;;17.80;72.20;;;;;;10487649;28;20080;-25
2022/12/23 08:56:42;;;;;;;5.00;3.42;;;17.80;72.20;;;;;;10488764;28;20072;-25
2022/12/23 09:01:45;;;;;;;;;;;17.70;72.20;;;;;;10474610;28;20053;-25
2022/12/23 09:06:47;;;;;;;5.28;3.03;;;17.80;72.00;;;;;;10493688;28;19952;-26
2022/12/23 09:11:49;;;;;;;4.37;2.30;;;17.70;72.10;;;;;;10487182;28;20092;-28
2022/12/23 09:16:52;;;;;;;4.55;1.40;;;17.90;71.20;;;;;;10504310;28;21036;-24
2022/12/23 09:21:54;;;;;;;1.73;1.08;;;18.00;71.00;;;;;;10478165;28;20057;-28
2022/12/23 09:26:56;;;;;;;1.60;1.00;;;17.90;71.30;;;;;;10480443;28;20068;-24
2022/12/23 09:31:59;;;;;;;2.72;1.08;;;18.00;71.40;;;;;;10474585;28;20075;-24
2022/12/23 09:37:02;;;;;;;3.08;1.20;;;18.00;71.20;;;;;;10482588;28;20071;-25
2022/12/23 09:42:14;;;;;;;2.15;1.40;;;18.00;71.90;;;;;;10468220;28;20493;-27
2022/12/23 09:47:19;;;;;;;1.20;1.10;;;18.10;71.50;;;;;;10474592;28;20106;-26
2022/12/23 09:52:27;;;;;;;1.58;0.90;;;18.10;71.60;;;;;;10482193;28;20113;-27
2022/12/23 09:57:35;;;;;;;1.33;0.80;;;18.10;71.80;;;;;;10480437;28;20493;-26
2022/12/23 10:02:55;;;;;;;2.25;1.20;;;18.00;71.90;;;;;;10489819;28;20044;-27
2022/12/23 10:08:02;;;;;;;1.50;0.90;;;18.10;71.90;;;;;;10481643;28;20049;-26
2022/12/23 10:13:09;;;;;;;5.03;1.10;;;18.10;71.90;;;;;;10474290;28;20070;-25
2022/12/23 10:18:20;;;;;;;1.25;0.90;;;18.00;71.90;;;;;;10459121;28;20552;-25
2022/12/23 10:23:30;;;;;;;1.55;0.90;;;18.10;71.80;;;;;;10480242;28;20044;-24
2022/12/23 10:28:31;;;;;;;3.28;1.05;;;18.10;71.70;;;;;;10483983;28;20127;-25
2022/12/23 10:33:41;;;;;;;8.47;2.80;;;18.00;71.70;;;;;;10480640;28;20079;-27
2022/12/23 10:38:53;;;;;;;3.90;2.00;;;18.00;71.90;;;;;;10488925;28;20162;-25
2022/12/23 10:44:05;;;;;;;2.83;0.90;;;18.00;71.80;;;;;;10485656;28;20489;-28
2022/12/23 10:49:20;;;;;;;5.25;1.48;;;18.10;71.70;;;;;;10481414;28;20087;-25
2022/12/23 10:54:24;;;;;;;6.32;1.02;;;18.10;71.70;;;;;;10486634;28;20535;-25
2022/12/23 10:59:28;;;;;;;4.80;1.77;;;18.00;71.50;;;;;;10493940;28;20087;-28
2022/12/23 11:04:36;;;;;;;3.22;1.35;;;18.20;71.30;;;;;;10494461;28;20094;-27
2022/12/23 11:09:40;;;;;;;5.28;1.35;;;18.10;71.80;;;;;;10487487;28;20092;-25
2022/12/23 11:14:50;;;;;;;3.55;1.60;;;18.10;72.00;;;;;;10481569;28;20571;-25
2022/12/23 11:20:08;;;;;;;4.55;1.90;;;18.00;72.00;;;;;;10476397;28;20680;-25
2022/12/23 11:25:26;;;;;;;3.50;1.38;;;18.00;71.70;;;;;;10477600;28;20051;-26
2022/12/23 11:30:29;;;;;;;7.05;1.60;;;18.00;71.70;;;;;;10486848;28;20051;-26
2022/12/23 11:35:35;;;;;;;3.53;1.40;;;18.00;71.90;;;;;;10490189;28;20047;-27
2022/12/23 11:40:38;;;;;;;2.05;1.30;;;18.00;71.70;;;;;;10509089;28;20069;-27
2022/12/23 11:45:40;;;;;;;2.97;1.42;;;18.00;71.80;;;;;;10505604;28;20048;-26
2022/12/23 11:50:43;;;;;;;9.25;2.25;;;18.00;71.70;;;;;;10495602;28;20092;-25
2022/12/23 11:55:56;;;;;;;4.80;1.38;;;18.00;71.70;;;;;;10483531;28;20045;-25
2022/12/23 12:01:00;;;;;;;2.50;1.25;;;18.00;71.50;;;;;;10491772;28;20076;-26
2022/12/23 12:06:05;;;;;;;4.30;1.20;;;18.00;71.70;;;;;;10499435;28;20098;-26
2022/12/23 12:11:14;;;;;;;4.88;1.42;;;18.00;71.70;;;;;;10485243;28;20099;-24
2022/12/23 12:16:33;;;;;;;4.03;1.63;;;18.00;71.40;;;;;;10499015;28;20071;-25
2022/12/23 12:21:38;;;;;;;3.42;1.27;;;18.10;71.20;;;;;;10508014;28;20470;-27
2022/12/23 12:26:41;;;;;;;4.43;1.23;;;18.00;71.30;;;;;;10509458;28;20048;-26
2022/12/23 12:31:45;;;;;;;;;;;18.00;71.40;;;;;;10509743;28;20053;-25
2022/12/23 12:36:54;;;;;;;3.28;1.27;;;18.00;71.40;;;;;;10508202;28;19955;-27
2022/12/23 12:42:00;;;;;;;3.35;1.10;;;18.00;71.20;;;;;;10504700;28;20347;-26
2022/12/23 12:47:09;;;;;;;2.88;1.10;;;18.00;71.10;;;;;;10497935;28;20045;-24
2022/12/23 12:52:15;;;;;;;5.13;1.52;;;17.90;71.50;;;;;;10500754;28;20481;-28
2022/12/23 12:57:20;;;;;;;3.28;1.25;;;18.00;71.00;;;;;;10497297;28;20049;-25
2022/12/23 13:02:59;;;;;;;2.70;1.40;;;18.10;71.00;;;;;;10509520;28;20076;-24
2022/12/23 13:08:14;;;;;;;3.03;1.30;;;17.90;71.30;;;;;;10489036;28;20067;-25
2022/12/23 13:13:30;;;;;;;2.78;1.10;;;18.00;71.30;;;;;;10485478;28;20139;-25
2022/12/23 13:18:43;;;;;;;3.63;1.33;;;17.90;71.20;;;;;;10489396;28;20053;-25
2022/12/23 13:23:55;;;;;;;2.20;1.15;;;18.00;71.00;;;;;;10478638;28;20134;-25
2022/12/23 13:29:30;;;;;;;2.42;0.77;;;18.00;70.80;;;;;;10499523;28;20051;-25
2022/12/23 13:34:44;;;;;;;2.75;1.35;;;18.00;70.60;;;;;;10463447;28;20049;-24
2022/12/23 13:39:57;;;;;;;1.92;1.00;;;18.00;70.70;;;;;;10482809;28;20091;-24
2022/12/23 13:45:00;;;;;;;3.25;1.42;;;18.00;70.60;;;;;;10482950;28;20080;-26
2022/12/23 13:50:10;;;;;;;3.67;1.35;;;18.00;70.70;;;;;;10489039;28;20218;-25
2022/12/23 13:55:24;;;;;;;2.40;1.20;;;18.00;70.60;;;;;;10494442;28;20044;-25
2022/12/23 14:00:29;;;;;;;2.70;1.38;;;18.00;70.40;;;;;;10502512;28;20485;-29
2022/12/23 14:05:34;;;;;;;3.65;1.42;;;18.00;70.70;;;;;;10512465;28;20097;-26
2022/12/23 14:10:38;;;;;;;2.08;1.20;;;18.00;70.20;;;;;;10495458;28;20135;-26
2022/12/23 14:16:20;;;;;;;1.48;1.05;;;17.90;70.90;;;;;;10497653;28;20047;-28
2022/12/23 14:21:31;;;;;;;3.47;1.20;;;18.00;70.20;;;;;;10504024;28;20119;-22
2022/12/23 14:26:56;;;;;;;2.45;1.20;;;18.00;70.20;;;;;;10483270;28;20052;-25
2022/12/23 14:31:59;;;;;;;2.53;1.20;;;18.00;70.20;;;;;;10496994;28;20049;-25
2022/12/23 14:37:31;;;;;;;3.75;1.60;;;18.00;70.20;;;;;;10498333;28;20083;-25
2022/12/23 14:42:36;;;;;;;2.17;1.00;;;17.90;70.70;;;;;;10497872;28;20404;-25
2022/12/23 14:47:37;;;;;;;1.98;1.15;;;17.90;70.70;;;;;;10493053;28;20138;-26
2022/12/23 14:52:58;;;;;;;4.97;1.67;;;17.80;71.10;;;;;;10489831;28;20128;-26
2022/12/23 14:58:10;;;;;;;1.58;1.20;;;17.80;71.10;;;;;;10508409;28;20446;-26
2022/12/23 15:03:12;;;;;;;2.25;1.15;;;17.80;71.00;;;;;;10494557;28;20044;-25
2022/12/23 15:08:27;;;;;;;1.42;1.10;;;17.70;72.10;;;;;;10497007;28;20040;-25
2022/12/23 15:13:31;;;;;;;1.88;1.13;;;17.80;70.70;;;;;;10487624;28;20135;-28
2022/12/23 15:18:33;;;;;;;5.95;1.15;;;17.90;70.20;;;;;;10491341;28;20064;-25
2022/12/23 15:23:35;;;;;;;1.48;0.95;;;17.90;70.20;;;;;;10481156;28;20467;-29
2022/12/23 15:28:40;;;;;;;1.77;1.10;;;17.80;70.50;;;;;;10489569;28;20633;-26
2022/12/23 15:33:46;;;;;;;2.83;1.25;;;17.40;73.30;;;;;;10487956;28;20049;-26
2022/12/23 15:38:48;;;;;;;6.18;3.50;;;17.70;71.10;;;;;;10516633;28;20079;-25
2022/12/23 15:43:51;;;;;;;7.30;3.63;;;17.20;74.80;;;;;;10508546;28;20131;-24
2022/12/23 15:48:53;;;;;;;10.23;5.90;;;16.40;82.00;;;;;;10508699;28;20124;-25
2022/12/23 15:53:59;;;;;;;3.67;2.53;;;13.80;99.10;;;;;;10493805;28;20066;-24
2022/12/23 15:59:04;;;;;;;8.60;2.80;;;13.10;99.90;;;;;;10476863;28;20680;-25
2022/12/23 16:04:07;;;;;;;7.47;2.95;;;12.90;99.90;;;;;;10485311;28;20125;-25
2022/12/23 16:09:26;;;;;;;5.47;1.90;;;12.30;99.90;;;;;;10475030;28;20051;-26
2022/12/23 16:14:36;;;;;;;3.83;1.30;;;12.10;99.90;;;;;;10488888;28;20170;-27
2022/12/23 16:19:39;;;;;;;7.43;2.28;;;12.10;99.90;;;;;;10483901;28;20048;-25
2022/12/23 16:24:46;;;;;;;6.97;2.30;;;12.40;99.90;;;;;;10501561;28;20137;-24
2022/12/23 16:29:49;;;;;;;6.03;2.10;;;12.20;99.90;;;;;;10509192;28;20044;-25
2022/12/23 16:34:51;;;;;;;11.55;1.80;;;12.10;99.90;;;;;;10500197;28;20048;-25
2022/12/23 16:39:53;;;;;;;10.05;2.00;;;11.90;99.90;;;;;;10484365;28;20045;-25
2022/12/23 16:44:56;;;;;;;9.17;1.63;;;11.70;99.90;;;;;;10495701;28;20075;-25
2022/12/23 16:49:58;;;;;;;9.98;1.80;;;12.40;99.90;;;;;;10498308;28;20074;-25
2022/12/23 16:55:00;;;;;;;14.82;2.85;;;11.80;99.90;;;;;;10486966;28;20060;-26
2022/12/23 17:00:04;;;;;;;16.13;2.60;;;11.70;99.90;;;;;;10477857;28;20079;-26
2022/12/23 17:05:07;;;;;;;11.70;2.40;;;11.50;99.90;;;;;;10514752;28;20071;-25
2022/12/23 17:10:10;;;;;;;23.02;4.10;;;12.00;99.90;;;;;;10465852;28;20132;-25
2022/12/23 17:15:22;;;;;;;22.50;4.93;;;12.10;99.90;;;;;;10470581;28;20084;-25
2022/12/23 17:20:24;;;;;;;36.63;5.43;;;12.10;99.90;;;;;;10488082;28;20504;-28
2022/12/23 17:25:26;;;;;;;33.78;5.18;;;12.70;99.90;;;;;;10483129;28;20509;-25
2022/12/23 17:30:30;;;;;;;41.65;6.43;;;12.30;99.90;;;;;;10483766;28;20041;-25
2022/12/23 17:35:31;;;;;;;37.35;4.32;;;11.70;99.90;;;;;;10483258;28;20060;-25
2022/12/23 17:40:33;;;;;;;42.17;6.13;;;12.10;99.90;;;;;;10501928;28;20770;-25
2022/12/23 17:45:37;;;;;;;90.10;11.00;;;12.20;99.90;;;;;;10504936;28;20097;-25
2022/12/23 17:50:40;;;;;;;45.53;7.35;;;11.30;99.90;;;;;;10486955;28;20055;-24
2022/12/23 17:55:42;;;;;;;64.10;10.10;;;11.30;99.90;;;;;;10483715;28;20138;-25
2022/12/23 18:00:45;;;;;;;52.90;7.17;;;11.00;99.90;;;;;;10463103;28;20102;-25
2022/12/23 18:05:47;;;;;;;50.42;7.75;;;11.70;99.90;;;;;;10476199;28;20045;-28
2022/12/23 18:10:49;;;;;;;54.67;7.90;;;12.20;99.90;;;;;;10474796;28;20060;-26
2022/12/23 18:15:52;;;;;;;55.30;9.05;;;11.50;99.90;;;;;;10466696;28;20489;-25
2022/12/23 18:20:56;;;;;;;44.72;6.53;;;12.00;99.90;;;;;;10479271;28;20132;-24
2022/12/23 18:25:59;;;;;;;54.20;7.43;;;11.40;99.90;;;;;;10484844;28;20512;-26
2022/12/23 18:31:02;;;;;;;57.33;8.13;;;11.70;99.90;;;;;;10488805;28;20056;-25
2022/12/23 18:36:04;;;;;;;71.85;7.97;;;11.50;99.90;;;;;;10475157;28;20463;-25
2022/12/23 18:41:08;;;;;;;50.45;8.27;;;11.20;99.90;;;;;;10481768;28;20532;-25
2022/12/23 18:46:11;;;;;;;52.20;7.63;;;11.00;99.90;;;;;;10474709;28;20131;-25
2022/12/23 18:51:14;;;;;;;57.97;6.22;;;11.70;99.90;;;;;;10488834;28;20106;-25
2022/12/23 18:56:19;;;;;;;65.70;9.68;;;11.10;99.90;;;;;;10489532;28;20060;-25
2022/12/23 19:01:23;;;;;;;56.17;9.65;;;11.40;99.90;;;;;;10487545;28;20393;-25
2022/12/23 19:06:25;;;;;;;54.72;7.10;;;11.10;99.90;;;;;;10475070;28;20075;-26
2022/12/23 19:11:27;;;;;;;59.80;6.85;;;10.80;99.90;;;;;;10484779;28;20044;-26
2022/12/23 19:16:30;;;;;;;38.47;6.78;;;11.10;99.90;;;;;;10488471;28;20052;-26
2022/12/23 19:21:32;;;;;;;52.88;7.28;;;11.20;99.90;;;;;;10483637;28;20045;-25
2022/12/23 19:26:34;;;;;;;48.87;7.87;;;11.20;99.90;;;;;;10485631;28;20044;-25
2022/12/23 19:31:37;;;;;;;42.35;7.47;;;11.50;99.90;;;;;;10465267;28;20638;-27
2022/12/23 19:36:39;;;;;;;42.65;6.20;;;11.20;99.90;;;;;;10479790;28;20084;-24
2022/12/23 19:41:42;;;;;;;42.25;7.05;;;11.00;99.90;;;;;;10476459;28;20495;-28
2022/12/23 19:46:45;;;;;;;42.03;6.60;;;11.10;99.90;;;;;;10464523;28;20511;-27
2022/12/23 19:51:47;;;;;;;45.97;4.45;;;11.20;99.90;;;;;;10486036;28;20056;-25
2022/12/23 19:56:50;;;;;;;45.53;5.60;;;11.10;99.90;;;;;;10476783;28;20194;-25
2022/12/23 20:01:53;;;;;;;;;;;11.20;99.90;;;;;;10470237;28;20485;-24
2022/12/23 20:06:55;;;;;;;32.70;4.68;;;10.80;99.90;;;;;;10490460;28;20296;-26
2022/12/23 20:11:57;;;;;;;32.00;3.53;;;11.00;99.90;;;;;;10462107;28;20103;-26
2022/12/23 20:17:00;;;;;;;26.02;4.28;;;11.20;99.90;;;;;;10481667;28;20087;-25
2022/12/23 20:22:02;;;;;;;26.20;4.20;;;11.50;99.90;;;;;;10490665;28;20102;-26
2022/12/23 20:27:04;;;;;;;27.92;3.50;;;11.40;99.90;;;;;;10491115;28;20453;-26
2022/12/23 20:32:07;;;;;;;26.73;3.83;;;11.80;99.90;;;;;;10509861;28;20043;-26
2022/12/23 20:37:10;;;;;;;17.98;3.85;;;11.50;99.90;;;;;;10501495;28;20048;-25
2022/12/23 20:42:12;;;;;;;28.23;5.65;;;11.20;99.90;;;;;;10496244;28;20084;-25
2022/12/23 20:47:15;;;;;;;26.40;4.00;;;11.30;99.90;;;;;;10501240;28;20480;-26
2022/12/23 20:52:17;;;;;;;22.23;3.85;;;11.20;99.90;;;;;;10492780;28;20072;-25
2022/12/23 20:57:19;;;;;;;32.15;4.35;;;11.30;99.90;;;;;;10490147;28;20513;-25
2022/12/23 21:02:22;;;;;;;27.48;3.42;;;11.10;99.90;;;;;;10500366;28;20064;-25
2022/12/23 21:07:25;;;;;;;29.40;3.83;;;11.20;99.90;;;;;;10494585;28;20079;-26
2022/12/23 21:12:27;;;;;;;25.35;3.13;;;11.20;99.90;;;;;;10487470;28;20500;-26
2022/12/23 21:17:30;;;;;;;26.63;3.77;;;11.30;99.90;;;;;;10483672;28;20486;-26
2022/12/23 21:22:32;;;;;;;34.67;4.60;;;11.40;99.90;;;;;;10478216;28;20068;-25
2022/12/23 21:27:34;;;;;;;28.30;3.97;;;11.90;99.90;;;;;;10488357;28;20133;-25
2022/12/23 21:32:37;;;;;;;24.40;4.38;;;11.10;99.90;;;;;;10474019;28;20515;-26
2022/12/23 21:37:39;;;;;;;30.65;4.03;;;11.30;99.90;;;;;;10501329;28;20466;-26
2022/12/23 21:42:41;;;;;;;42.72;4.72;;;11.40;99.90;;;;;;10517650;28;20489;-25
2022/12/23 21:47:44;;;;;;;31.33;4.47;;;11.10;99.90;;;;;;10489712;28;20152;-25
2022/12/23 21:52:46;;;;;;;;;;;11.20;99.90;;;;;;10504398;28;20423;-25
2022/12/23 21:57:48;;;;;;;16.25;3.15;;;11.10;99.90;;;;;;10494858;28;20323;-25
2022/12/23 22:02:51;;;;;;;28.10;4.32;;;11.30;99.90;;;;;;10492563;28;20047;-25
2022/12/23 22:07:53;;;;;;;29.55;3.88;;;10.80;99.90;;;;;;10492289;28;20051;-27
2022/12/23 22:12:55;;;;;;;32.70;4.32;;;10.60;99.90;;;;;;10485065;28;20101;-25
2022/12/23 22:17:58;;;;;;;38.55;4.80;;;11.20;99.90;;;;;;10474886;28;20478;-26
2022/12/23 22:23:00;;;;;;;29.65;4.32;;;10.90;99.90;;;;;;10464036;28;20118;-25
2022/12/23 22:28:02;;;;;;;37.65;4.60;;;10.80;99.90;;;;;;10481825;28;20045;-24
2022/12/23 22:33:08;;;;;;;38.95;4.68;;;11.20;99.90;;;;;;10487690;28;20048;-27
2022/12/23 22:38:10;;;;;;;24.42;4.03;;;10.90;99.90;;;;;;10488873;28;20450;-26
2022/12/23 22:43:12;;;;;;;36.87;5.47;;;11.40;99.90;;;;;;10497108;28;20056;-25
2022/12/23 22:48:15;;;;;;;39.90;6.10;;;10.70;99.90;;;;;;10479459;28;20095;-25
2022/12/23 22:53:17;;;;;;;30.33;3.63;;;10.80;99.90;;;;;;10487550;28;20064;-25
2022/12/23 22:58:18;;;;;;;26.02;3.83;;;10.60;99.90;;;;;;10499119;28;20083;-26
2022/12/23 23:03:22;;;;;;;29.58;5.47;;;10.70;99.90;;;;;;10482310;28;20056;-26
2022/12/23 23:08:24;;;;;;;40.80;4.70;;;11.00;99.90;;;;;;10500314;28;20051;-27
2022/12/23 23:13:29;;;;;;;33.45;4.72;;;10.80;99.90;;;;;;10491974;28;20405;-25
2022/12/23 23:18:32;;;;;;;42.67;5.25;;;10.60;99.90;;;;;;10499847;28;20056;-25
2022/12/23 23:23:34;;;;;;;51.90;6.55;;;11.00;99.90;;;;;;10471292;28;20426;-25
2022/12/23 23:28:38;;;;;;;33.40;5.00;;;10.60;99.90;;;;;;10472547;28;20496;-25
2022/12/23 23:33:41;;;;;;;36.20;5.38;;;10.90;99.90;;;;;;10490813;28;20067;-25
2022/12/23 23:38:43;;;;;;;56.22;6.80;;;10.60;99.90;;;;;;10488522;28;20049;-27
2022/12/23 23:43:44;;;;;;;62.22;6.43;;;10.40;99.90;;;;;;10482980;28;20127;-25
2022/12/23 23:48:48;;;;;;;46.00;6.00;;;10.40;99.90;;;;;;10489859;28;20044;-25
2022/12/23 23:53:50;;;;;;;45.78;5.93;;;10.40;99.90;;;;;;10488292;28;20123;-25
2022/12/23 23:58:52;;;;;;;47.83;4.68;;;10.50;99.90;;;;;;10504555;28;20574;-26
